This is the latest recevied weather packets stored in our database for station/object SQ7FJB-2. If no packets are shown the sender has not sent any weather packets the latest 10 day(s).
| Time | Temp. | Humidity | Pressure | Rain* | Wind** | Luminosity | Snow |
|---|---|---|---|---|---|---|---|
| 1777927577 | 13.33° C | 69% | 1010.7 hPa | 0 mm | - | - | - |
| 1777926977 | 12.78° C | 72% | 1010.7 hPa | 0 mm | - | - | - |
| 1777926364 | 13.33° C | 71% | 1010.7 hPa | 0 mm | - | - | - |
| 1777925764 | 13.89° C | 69% | 1010.7 hPa | 0 mm | - | - | - |
| 1777925164 | 14.44° C | 67% | 1010.7 hPa | 0 mm | - | - | - |
| 1777924552 | 15° C | 65% | 1010.6 hPa | 0 mm | - | - | - |
| 1777923939 | 15° C | 65% | 1010.7 hPa | 0 mm | - | - | - |
| 1777923339 | 15° C | 65% | 1010.6 hPa | 0 mm | - | - | - |
| 1777922727 | 15.56° C | 63% | 1010.6 hPa | 0 mm | - | - | - |
| 1777922127 | 16.11° C | 61% | 1010.6 hPa | 0 mm | - | - | - |
| 1777921527 | 16.11° C | 59% | 1010.6 hPa | 0 mm | - | - | - |
| 1777920927 | 15.56° C | 61% | 1010.7 hPa | 0 mm | - | - | - |
| 1777920315 | 15.56° C | 62% | 1010.6 hPa | 0 mm | - | - | - |
| 1777919714 | 16.11° C | 63% | 1010.5 hPa | 0 mm | - | - | - |
| 1777919114 | 16.11° C | 63% | 1010.4 hPa | 0 mm | - | - | - |
| 1777918502 | 16.67° C | 60% | 1010.3 hPa | 0 mm | - | - | - |
| 1777917889 | 17.78° C | 60% | 1010.3 hPa | 0 mm | - | - | - |
| 1777917277 | 18.89° C | 56% | 1010.2 hPa | 0 mm | - | - | - |
| 1777916064 | 20.56° C | 47% | 1010.1 hPa | 0 mm | - | - | - |
| 1777915464 | 21.67° C | 43% | 1010.1 hPa | 0 mm | - | - | - |
| 1777914865 | 22.22° C | 40% | 1010.1 hPa | 0 mm | - | - | - |
| 1777914254 | 22.78° C | 39% | 1010.2 hPa | 0 mm | - | - | - |
| 1777913653 | 22.78° C | 39% | 1010.3 hPa | 0 mm | - | - | - |
| 1777913052 | 23.33° C | 37% | 1010.2 hPa | 0 mm | - | - | - |
| 1777912439 | 23.89° C | 35% | 1010.2 hPa | 0 mm | - | - | - |
* Rain latest hour (hover to see other rain measurements)
** Current wind speed in m/s (hover to see current wind gust speed)